createdAt,value
2019-05-30T00:15:37.338Z,17.75
2019-05-30T00:18:15.744Z,15.68
2019-05-30T00:30:23.361Z,14.93
2019-05-30T00:39:09.967Z,14.43
2019-05-30T00:41:51.654Z,14.43
2019-05-30T00:44:26.054Z,13.32
2019-05-30T00:55:54.579Z,11.18
2019-05-30T01:34:45.661Z,6.47
2019-05-30T01:37:29.765Z,5.92
2019-05-30T01:43:02.322Z,4.78
2019-05-30T01:45:34.984Z,4.80
2019-05-30T01:48:14.150Z,5.08
2019-05-30T01:50:44.548Z,4.25
2019-05-30T01:53:19.223Z,4.25
2019-05-30T01:56:01.144Z,4.10
2019-05-30T01:58:51.120Z,3.85
2019-05-30T02:01:58.932Z,4.03
2019-05-30T02:04:57.273Z,3.40
2019-05-30T02:07:35.991Z,3.35
2019-05-30T02:16:25.563Z,2.95
2019-05-30T02:19:03.719Z,3.40
2019-05-30T02:21:53.554Z,2.70
2019-05-30T02:27:23.468Z,2.72
2019-05-30T02:30:06.051Z,2.67
2019-05-30T02:32:42.921Z,2.40
2019-05-30T02:35:21.439Z,2.60
2019-05-30T02:41:08.096Z,3.30
2019-05-30T02:44:01.254Z,3.85
2019-05-30T02:46:36.648Z,4.10
2019-05-30T02:49:13.973Z,3.85
2019-05-30T02:52:04.790Z,4.20
2019-05-30T03:10:40.701Z,6.85
2019-05-30T03:16:05.056Z,7.85
2019-05-30T03:25:12.657Z,8.15
2019-05-30T03:35:27.471Z,9.05
2019-05-30T03:36:44.078Z,9.05
2019-05-30T03:39:31.319Z,10.63
2019-05-30T03:48:00.334Z,9.53
2019-05-30T03:50:56.201Z,11.05
2019-05-30T03:53:38.094Z,12.80
2019-05-30T03:56:25.120Z,12.85
2019-05-30T03:59:23.426Z,13.62
2019-05-30T04:05:22.780Z,15.48
2019-05-30T04:07:58.533Z,15.68
2019-05-30T04:53:14.018Z,14.05
2019-05-30T04:58:50.271Z,14.45
2019-05-30T05:07:55.814Z,14.07
2019-05-30T05:10:28.887Z,13.90
2019-05-30T05:13:26.856Z,13.90
2019-05-30T05:16:29.377Z,14.07
2019-05-30T05:24:47.701Z,14.75
2019-05-30T05:33:02.878Z,14.45
2019-05-30T05:47:57.540Z,15.72
2019-05-30T06:49:11.279Z,15.32
2019-05-30T06:59:44.298Z,14.85
2019-05-30T07:17:10.591Z,16.32
2019-05-30T07:49:26.145Z,18.23
2019-05-30T07:55:08.453Z,19.12
2019-05-30T07:57:49.318Z,19.52
2019-05-30T08:00:35.490Z,20.02
2019-05-30T08:03:07.517Z,19.95
2019-05-30T08:05:42.053Z,20.90
2019-05-30T08:08:11.864Z,20.43
2019-05-30T08:11:06.242Z,19.95
2019-05-30T08:13:26.997Z,20.25
2019-05-30T08:15:57.233Z,21.30
2019-05-30T08:18:33.741Z,20.43
2019-05-30T08:21:03.722Z,20.17
2019-05-30T08:23:40.162Z,20.80
2019-05-30T08:32:05.975Z,22.05
2019-05-30T08:34:44.063Z,22.50
2019-05-30T08:37:18.861Z,23.90
2019-05-30T08:43:07.667Z,22.17
2019-05-30T08:46:22.495Z,23.27
2019-05-30T08:55:09.120Z,22.60
2019-05-30T08:57:49.521Z,22.20
2019-05-30T09:15:27.112Z,23.35
2019-05-30T09:24:03.409Z,22.55
2019-05-30T09:26:56.463Z,22.15
2019-05-30T09:39:12.567Z,22.17
2019-05-30T09:41:49.742Z,23.60
2019-05-30T10:00:08.788Z,25.27
2019-05-30T10:40:21.654Z,21.82
2019-05-30T10:43:08.453Z,24.27
2019-05-30T10:45:47.865Z,25.20
2019-05-30T10:48:21.386Z,26.02
2019-05-30T10:51:13.859Z,27.07
2019-05-30T10:57:01.625Z,28.42
2019-05-30T10:59:39.527Z,29.57
2019-05-30T11:02:10.968Z,26.87
2019-05-30T11:04:43.983Z,26.40
2019-05-30T11:07:32.644Z,25.60
2019-05-30T11:10:15.377Z,24.50
2019-05-30T11:12:48.321Z,22.22
2019-05-30T11:15:21.723Z,21.93
2019-05-30T11:18:02.903Z,22.25
2019-05-30T11:20:54.029Z,22.55
2019-05-30T11:23:33.631Z,22.52
2019-05-30T11:28:55.316Z,22.52
2019-05-30T11:31:33.559Z,23.92
2019-05-30T11:34:16.724Z,25.00
2019-05-30T11:36:57.264Z,24.52
2019-05-30T11:39:29.751Z,24.30
2019-05-30T11:42:00.972Z,23.87
2019-05-30T11:44:33.208Z,23.77
2019-05-30T11:47:05.291Z,24.40
2019-05-30T11:49:46.981Z,23.25
2019-05-30T11:52:26.651Z,23.80
2019-05-30T11:55:30.037Z,22.87
2019-05-30T11:58:04.171Z,23.07
2019-05-30T12:00:40.064Z,21.48
2019-05-30T12:03:24.858Z,22.73
2019-05-30T12:05:55.185Z,22.73
2019-05-30T12:08:28.369Z,21.60
2019-05-30T12:10:59.352Z,20.52
2019-05-30T12:13:31.661Z,22.62
2019-05-30T12:16:03.054Z,20.12
2019-05-30T12:18:34.831Z,19.23
2019-05-30T12:21:05.869Z,19.37
2019-05-30T12:23:38.749Z,18.37
2019-05-30T12:26:10.288Z,19.20
2019-05-30T12:28:41.303Z,17.57
2019-05-30T12:31:12.189Z,19.25
2019-05-30T12:33:48.816Z,17.87
2019-05-30T12:36:19.039Z,15.85
2019-05-30T12:38:50.212Z,14.18
2019-05-30T12:41:20.176Z,13.43
2019-05-30T12:43:56.958Z,13.13
2019-05-30T12:46:31.552Z,11.93
2019-05-30T12:49:09.557Z,11.97
2019-05-30T12:51:39.798Z,8.68
2019-05-30T12:54:18.453Z,6.87
2019-05-30T12:56:52.499Z,6.62
2019-05-30T12:59:28.479Z,6.40
2019-05-30T13:02:03.094Z,6.05
2019-05-30T13:04:42.313Z,5.97
2019-05-30T13:07:16.559Z,5.60
2019-05-30T13:09:46.624Z,6.50
2019-05-30T13:12:17.157Z,5.45
2019-05-30T13:14:49.658Z,5.97
2019-05-30T13:17:19.928Z,5.75
2019-05-30T13:19:50.983Z,5.42
2019-05-30T13:22:23.636Z,5.45
2019-05-30T13:24:55.499Z,5.80
2019-05-30T13:27:25.486Z,5.47
2019-05-30T13:30:00.004Z,6.83
2019-05-30T13:32:31.388Z,6.85
2019-05-30T13:35:05.451Z,7.17
2019-05-30T13:37:36.989Z,7.25
2019-05-30T13:40:24.930Z,7.55
2019-05-30T13:42:50.895Z,7.55
2019-05-30T13:45:46.838Z,8.18
2019-05-30T13:48:22.649Z,7.97
2019-05-30T13:51:02.759Z,9.35
2019-05-30T13:53:41.251Z,8.45
2019-05-30T13:56:19.286Z,9.00
2019-05-30T13:59:03.622Z,8.40
2019-05-30T14:01:45.355Z,7.58
2019-05-30T14:04:23.874Z,6.00
2019-05-30T14:07:02.298Z,5.33
2019-05-30T14:12:28.012Z,5.78
2019-05-30T14:18:04.983Z,6.25
2019-05-30T14:20:50.870Z,6.10
2019-05-30T14:26:07.416Z,6.58
2019-05-30T14:28:47.311Z,6.12
2019-05-30T14:31:25.338Z,6.90
2019-05-30T14:37:14.261Z,7.95
2019-05-30T14:40:18.313Z,7.70
2019-05-30T14:46:00.221Z,7.47
2019-05-30T14:48:32.050Z,7.10
2019-05-30T14:51:08.702Z,5.65
2019-05-30T14:54:08.874Z,5.10
2019-05-30T14:56:45.836Z,5.10
2019-05-30T14:59:22.859Z,4.65
2019-05-30T15:04:34.458Z,4.50
2019-05-30T15:07:43.934Z,4.05
2019-05-30T15:10:20.788Z,3.90
2019-05-30T15:12:57.371Z,3.47
2019-05-30T15:15:33.447Z,11.70
2019-05-30T15:18:07.106Z,15.13
2019-05-30T15:20:41.952Z,4.53
2019-05-30T15:23:17.202Z,7.53
2019-05-30T15:25:56.956Z,18.98
2019-05-30T15:28:34.062Z,70.03
2019-05-30T15:31:06.672Z,21.48
2019-05-30T15:33:42.215Z,52.62
2019-05-30T15:36:29.005Z,12.13
2019-05-30T15:39:57.861Z,10.47
2019-05-30T15:42:29.732Z,7.25
2019-05-30T15:45:05.298Z,17.27
2019-05-30T15:47:48.865Z,5.08
2019-05-30T15:50:43.435Z,4.05
2019-05-30T15:53:15.113Z,4.15
2019-05-30T15:55:52.324Z,4.28
2019-05-30T16:11:32.527Z,6.95
2019-05-30T16:14:15.475Z,11.43
2019-05-30T16:19:59.106Z,4.45
2019-05-30T16:26:00.074Z,5.83
2019-05-30T16:28:48.869Z,5.25
2019-05-30T16:31:22.806Z,5.00
2019-05-30T16:34:16.566Z,2.60
2019-05-30T16:43:14.083Z,2.33
2019-05-30T16:49:48.373Z,2.62
2019-05-30T16:58:29.822Z,3.25
2019-05-30T17:01:39.678Z,3.77
2019-05-30T17:13:45.062Z,3.40
2019-05-30T17:16:31.922Z,3.05
2019-05-30T17:21:58.648Z,3.35
2019-05-30T17:30:19.972Z,3.40
2019-05-30T17:33:04.726Z,3.42
2019-05-30T17:36:03.385Z,4.17
2019-05-30T17:42:29.087Z,3.62
2019-05-30T17:45:02.614Z,3.95
2019-05-30T17:47:33.621Z,3.80
2019-05-30T17:50:10.714Z,3.70
2019-05-30T17:55:23.788Z,3.90
2019-05-30T17:58:04.455Z,3.58
2019-05-30T19:14:42.063Z,3.40
2019-05-30T21:11:53.397Z,4.03
2019-05-30T21:48:31.652Z,3.58
2019-05-30T21:51:06.202Z,3.27
2019-05-30T21:56:25.467Z,2.60
2019-05-30T21:59:02.975Z,3.02
2019-05-30T22:01:40.516Z,2.60
2019-05-30T22:04:14.212Z,3.00
2019-05-30T22:24:30.190Z,3.05
2019-05-30T22:35:48.901Z,3.05
2019-05-30T22:41:29.054Z,3.00
2019-05-30T22:50:13.806Z,2.83
2019-05-30T22:56:21.828Z,2.70
2019-05-30T23:47:13.510Z,3.42
2019-05-30T23:50:07.359Z,3.70
